createdAt,value
2022-12-20T00:02:26.852Z,45.6
2022-12-20T00:07:29.588Z,45.7
2022-12-20T00:12:29.322Z,45.6
2022-12-20T00:17:29.572Z,45.4
2022-12-20T00:22:29.775Z,45.4
2022-12-20T00:27:29.985Z,45.3
2022-12-20T00:32:30.442Z,45.6
2022-12-20T00:37:30.802Z,45.4
2022-12-20T00:42:31.358Z,45.7
2022-12-20T00:47:31.594Z,45.2
2022-12-20T00:52:31.771Z,45.4
2022-12-20T00:57:31.731Z,45.4
2022-12-20T01:02:32.130Z,45.4
2022-12-20T01:07:32.265Z,45.3
2022-12-20T01:12:32.514Z,45.3
2022-12-20T01:17:32.622Z,45.2
2022-12-20T01:22:32.874Z,45.1
2022-12-20T01:27:33.095Z,45.1
2022-12-20T01:32:33.301Z,45
2022-12-20T01:37:33.447Z,45.1
2022-12-20T01:42:33.771Z,45.1
2022-12-20T01:47:36.600Z,45
2022-12-20T01:52:39.147Z,45
2022-12-20T01:57:38.850Z,44.8
2022-12-20T02:02:39.152Z,44.7
2022-12-20T02:07:38.972Z,44.8
2022-12-20T02:12:39.300Z,44.9
2022-12-20T02:17:39.316Z,44.8
2022-12-20T02:22:39.735Z,44.7
2022-12-20T02:27:39.833Z,45
2022-12-20T02:32:39.986Z,44.9
2022-12-20T02:37:39.923Z,44.9
2022-12-20T02:42:40.328Z,44.9
2022-12-20T02:47:42.378Z,44.8
2022-12-20T02:52:42.808Z,45.1
2022-12-20T02:57:42.436Z,45.1
2022-12-20T03:02:42.825Z,45.1
2022-12-20T03:07:42.965Z,44.9
2022-12-20T03:12:43.212Z,44.9
2022-12-20T03:17:43.313Z,45
2022-12-20T03:22:43.489Z,44.8
2022-12-20T03:27:43.856Z,45.1
2022-12-20T03:32:46.775Z,45
2022-12-20T03:37:45.424Z,45.1
2022-12-20T03:42:45.991Z,44.6
2022-12-20T03:47:46.064Z,44.6
2022-12-20T03:52:45.998Z,44.7
2022-12-20T03:57:48.878Z,44.5
2022-12-20T04:02:48.661Z,44.6
2022-12-20T04:07:48.395Z,44.4
2022-12-20T04:12:48.661Z,44.3
2022-12-20T04:17:49.093Z,44.3
2022-12-20T04:22:49.371Z,44.2
2022-12-20T04:27:49.559Z,44.4
2022-12-20T04:32:49.651Z,44.4
2022-12-20T04:37:49.953Z,44.5
2022-12-20T04:42:50.186Z,44.6
2022-12-20T04:47:50.442Z,44.5
2022-12-20T04:52:50.867Z,44.5
2022-12-20T04:57:54.133Z,44.7
2022-12-20T05:02:53.981Z,44.8
2022-12-20T05:07:53.962Z,44.6
2022-12-20T05:12:54.234Z,44.6
2022-12-20T05:17:57.161Z,44.7
2022-12-20T05:22:57.068Z,44.6
2022-12-20T05:27:57.121Z,44.7
2022-12-20T05:33:00.088Z,44.6
2022-12-20T05:37:59.813Z,44.7
2022-12-20T05:43:00.136Z,44.7
2022-12-20T05:48:00.249Z,44.7
2022-12-20T05:53:03.553Z,44.7
2022-12-20T05:58:00.555Z,44.8
2022-12-20T06:03:03.773Z,44.8
2022-12-20T06:08:03.401Z,44.7
2022-12-20T06:13:06.277Z,44.8
2022-12-20T06:18:06.167Z,44.8
2022-12-20T06:23:08.984Z,44.8
2022-12-20T06:28:08.634Z,44.8
2022-12-20T06:33:08.997Z,44.5
2022-12-20T06:38:09.333Z,44.4
2022-12-20T06:43:12.435Z,44
2022-12-20T06:48:12.335Z,43.9
2022-12-20T06:53:12.498Z,43.7
2022-12-20T06:58:12.700Z,43.7
2022-12-20T07:03:13.176Z,43.3
2022-12-20T07:08:13.058Z,43.1
2022-12-20T07:13:15.784Z,43
2022-12-20T07:18:16.412Z,42.7
2022-12-20T07:23:16.402Z,42.9
2022-12-20T07:28:16.445Z,42.7
2022-12-20T07:33:16.923Z,42.8
2022-12-20T07:38:19.967Z,42.4
2022-12-20T07:43:19.702Z,42.4
2022-12-20T07:48:22.205Z,42.4
2022-12-20T07:53:21.796Z,42.2
2022-12-20T07:58:21.947Z,41.6
2022-12-20T08:03:22.282Z,42.1
2022-12-20T08:08:22.488Z,42.2
2022-12-20T08:13:22.553Z,42.1
2022-12-20T08:18:22.675Z,42.2
2022-12-20T08:23:25.664Z,42.2
2022-12-20T08:28:28.112Z,42.2
2022-12-20T08:33:27.746Z,42.3
2022-12-20T08:38:30.659Z,42.3
2022-12-20T08:43:30.138Z,42.3
2022-12-20T08:48:30.314Z,42.3
2022-12-20T08:53:30.563Z,42.2
2022-12-20T08:58:30.525Z,42.4
2022-12-20T09:03:30.625Z,42.5
2022-12-20T09:08:30.643Z,42.6
2022-12-20T09:13:30.642Z,42.8
2022-12-20T09:18:30.821Z,42.7
2022-12-20T09:23:33.679Z,43
2022-12-20T09:28:33.400Z,43.1
2022-12-20T09:33:33.559Z,42.9
2022-12-20T09:38:33.696Z,43
2022-12-20T09:43:33.848Z,43
2022-12-20T09:48:36.655Z,43
2022-12-20T09:53:36.396Z,43.1
2022-12-20T09:58:36.454Z,43.1
2022-12-20T10:03:36.830Z,43
2022-12-20T10:08:36.922Z,43.1
2022-12-20T10:13:37.182Z,43
2022-12-20T10:18:37.435Z,42.8
2022-12-20T10:23:37.781Z,42.9
2022-12-20T10:28:38.251Z,43
2022-12-20T10:33:38.231Z,43.5
2022-12-20T10:38:38.383Z,43.2
2022-12-20T10:43:38.507Z,43.5
2022-12-20T10:48:41.327Z,43.3
2022-12-20T10:53:40.687Z,43.1
2022-12-20T10:58:40.986Z,43.1
2022-12-20T11:03:42.098Z,42.3
2022-12-20T11:08:51.404Z,41.6
2022-12-20T11:13:44.863Z,41.3
2022-12-20T11:18:45.111Z,41.2
2022-12-20T11:23:45.562Z,40.6
2022-12-20T11:28:45.809Z,40.6
2022-12-20T11:33:47.947Z,40.6
2022-12-20T11:38:47.925Z,40.2
2022-12-20T11:44:23.028Z,40.3
2022-12-20T11:48:48.611Z,40
2022-12-20T11:53:51.554Z,40
2022-12-20T11:58:54.100Z,40.1
2022-12-20T12:03:54.737Z,40
2022-12-20T12:08:54.702Z,40
2022-12-20T12:13:54.905Z,40
2022-12-20T12:18:55.090Z,39.9
2022-12-20T12:23:55.389Z,39.8
2022-12-20T12:28:55.434Z,39.5
2022-12-20T12:33:55.680Z,40
2022-12-20T12:39:01.812Z,39.9
2022-12-20T12:43:56.204Z,39.7
2022-12-20T12:48:56.639Z,39.7
2022-12-20T12:53:56.893Z,39.7
2022-12-20T12:58:57.219Z,39.8
2022-12-20T13:03:57.697Z,39.7
2022-12-20T13:08:57.686Z,39.8
2022-12-20T13:13:57.845Z,39.9
2022-12-20T13:18:58.039Z,40
2022-12-20T13:23:58.078Z,40
2022-12-20T13:29:01.023Z,40.1
2022-12-20T13:34:00.553Z,40
2022-12-20T13:39:00.865Z,39.9
2022-12-20T13:44:01.859Z,40
2022-12-20T13:49:04.734Z,40.2
2022-12-20T13:54:04.421Z,40.2
2022-12-20T13:59:04.317Z,40.2
2022-12-20T14:04:04.549Z,40.2
2022-12-20T14:09:07.321Z,40.3
2022-12-20T14:14:09.902Z,40.1
2022-12-20T14:19:09.427Z,40.3
2022-12-20T14:24:09.595Z,40.2
2022-12-20T14:29:09.674Z,40.3
2022-12-20T14:34:10.176Z,40.3
2022-12-20T14:39:10.070Z,40.2
2022-12-20T14:44:10.440Z,40.3
2022-12-20T14:49:13.687Z,40.2
2022-12-20T14:54:25.945Z,40.1
2022-12-20T14:59:13.588Z,39.9
2022-12-20T15:04:13.780Z,40.2
2022-12-20T15:09:14.220Z,40.2
2022-12-20T15:14:14.422Z,40.2
2022-12-20T15:19:14.542Z,40.2
2022-12-20T15:24:14.942Z,40.3
2022-12-20T15:29:17.829Z,40.1
2022-12-20T15:34:17.417Z,40
2022-12-20T15:39:17.644Z,40.1
2022-12-20T15:44:17.784Z,40.1
2022-12-20T15:49:17.796Z,40
2022-12-20T15:54:18.036Z,40.1
2022-12-20T15:59:57.409Z,40.1
2022-12-20T16:04:18.096Z,40.2
2022-12-20T16:09:18.331Z,40.1
2022-12-20T16:14:18.511Z,40.2
2022-12-20T16:19:18.913Z,40.1
2022-12-20T16:24:21.622Z,40.2
2022-12-20T16:29:21.017Z,40
2022-12-20T16:34:22.134Z,40.1
2022-12-20T16:39:21.904Z,40.2
2022-12-20T16:44:22.251Z,40.2
2022-12-20T16:49:22.635Z,40.1
2022-12-20T16:54:23.157Z,40.1
2022-12-20T16:59:23.655Z,40.1
2022-12-20T17:04:23.510Z,40.2
2022-12-20T17:09:28.422Z,40.2
2022-12-20T17:14:28.151Z,40.1
2022-12-20T17:19:28.296Z,40.1
2022-12-20T17:24:28.376Z,40.1
2022-12-20T17:29:28.851Z,40
2022-12-20T17:34:29.060Z,39.9
2022-12-20T17:39:29.404Z,40
2022-12-20T17:44:29.671Z,40.1
2022-12-20T17:49:32.578Z,40.2
2022-12-20T17:54:39.867Z,40.2
2022-12-20T17:59:34.816Z,40.4
2022-12-20T18:04:34.110Z,40.9
2022-12-20T18:09:33.691Z,41.5
2022-12-20T18:14:33.748Z,41.8
2022-12-20T18:19:33.910Z,42.1
2022-12-20T18:24:33.971Z,42.1
2022-12-20T18:29:34.058Z,42.2
2022-12-20T18:34:35.150Z,42.4
2022-12-20T18:39:34.996Z,42.5
2022-12-20T18:44:37.984Z,42.6
2022-12-20T18:49:37.849Z,42.7
2022-12-20T18:54:40.655Z,42.6
2022-12-20T18:59:40.326Z,42.8
2022-12-20T19:04:43.326Z,43
2022-12-20T19:09:42.785Z,43.1
2022-12-20T19:14:45.576Z,42.9
2022-12-20T19:19:45.307Z,43.2
2022-12-20T19:24:45.467Z,43.2
2022-12-20T19:29:45.625Z,43.3
2022-12-20T19:34:44.657Z,43.2
2022-12-20T19:39:47.799Z,43.3
2022-12-20T19:44:47.452Z,43.5
2022-12-20T19:49:50.402Z,43.5
2022-12-20T19:54:52.785Z,43.8
2022-12-20T19:59:55.906Z,43.9
2022-12-20T20:04:55.291Z,43.7
2022-12-20T20:09:55.171Z,44.1
2022-12-20T20:14:55.525Z,44
2022-12-20T20:19:55.948Z,43.9
2022-12-20T20:24:56.291Z,43.8
2022-12-20T20:29:56.491Z,44.2
2022-12-20T20:34:56.819Z,44.2
2022-12-20T20:39:59.917Z,44.2
2022-12-20T20:44:59.564Z,44.2
2022-12-20T20:49:59.776Z,44.3
2022-12-20T20:54:59.837Z,44.2
2022-12-20T21:00:00.121Z,44.4
2022-12-20T21:05:47.433Z,44.4
2022-12-20T21:10:01.697Z,44.4
2022-12-20T21:15:21.712Z,44.4
2022-12-20T21:20:01.796Z,44.5
2022-12-20T21:25:02.975Z,44.6
2022-12-20T21:30:03.133Z,44.6
2022-12-20T21:35:03.380Z,44.5
2022-12-20T21:40:06.353Z,44.6
2022-12-20T21:45:06.109Z,44.4
2022-12-20T21:50:09.076Z,44.6
2022-12-20T21:55:08.842Z,44.5
2022-12-20T22:00:09.126Z,44.7
2022-12-20T22:05:11.271Z,44.6
2022-12-20T22:10:11.164Z,44.7
2022-12-20T22:15:11.392Z,44.7
2022-12-20T22:20:11.716Z,44.7
2022-12-20T22:25:11.684Z,44.8
2022-12-20T22:30:12.072Z,44.7
2022-12-20T22:35:19.148Z,44.8
2022-12-20T22:40:15.387Z,44.7
2022-12-20T22:45:15.396Z,44.6
2022-12-20T22:50:15.614Z,44.9
2022-12-20T22:55:15.716Z,44.7
2022-12-20T23:00:18.793Z,44.7
2022-12-20T23:05:18.673Z,44.8
2022-12-20T23:10:19.118Z,44.7
2022-12-20T23:15:19.463Z,44.8
2022-12-20T23:20:22.484Z,44.7
2022-12-20T23:25:22.116Z,44.8
2022-12-20T23:30:22.199Z,44.8
2022-12-20T23:35:25.087Z,44.7
2022-12-20T23:40:27.842Z,44.8
2022-12-20T23:45:28.790Z,44.8
2022-12-20T23:50:29.673Z,44.8
2022-12-20T23:55:29.862Z,44.9
